Time;durP1;ratioP1;P1;durP2;ratioP2;P2;SDS_P1;SDS_P2;PMS_P1;PMS_P2;Temp;Humidity;BMP_temperature;BMP_pressure;BME280_temperature;BME280_humidity;BME280_pressure;Samples;Min_cycle;Max_cycle;Signal;HPM_P1;HPM_P2
2021/10/19 00:00:14;;;;;;;23.80;10.80;;;18.10;95.60;;;;;;5097061;28;20086;-81
2021/10/19 00:02:41;;;;;;;21.38;10.63;;;18.10;95.70;;;;;;5097385;28;20024;-80
2021/10/19 00:05:09;;;;;;;19.65;10.60;;;18.10;95.60;;;;;;5097363;28;20032;-80
2021/10/19 00:07:36;;;;;;;26.58;11.07;;;18.10;95.90;;;;;;5097399;28;20470;-81
2021/10/19 00:10:03;;;;;;;21.58;11.00;;;18.10;95.90;;;;;;5097294;28;20600;-81
2021/10/19 00:12:29;;;;;;;25.58;11.35;;;18.10;96.00;;;;;;5096871;28;20107;-80
2021/10/19 00:14:55;;;;;;;21.70;9.57;;;18.10;96.00;;;;;;5097385;28;20048;-80
2021/10/19 00:17:21;;;;;;;24.23;10.15;;;18.10;95.80;;;;;;5097108;28;20132;-80
2021/10/19 00:19:46;;;;;;;18.35;9.48;;;18.10;95.80;;;;;;5097295;28;20032;-81
2021/10/19 00:22:12;;;;;;;23.63;9.40;;;18.10;95.60;;;;;;5096912;28;20048;-80
2021/10/19 00:24:38;;;;;;;20.13;9.73;;;18.10;95.20;;;;;;5097110;28;20020;-80
2021/10/19 00:27:07;;;;;;;20.50;9.07;;;18.10;95.10;;;;;;5096797;28;20012;-80
2021/10/19 00:29:33;;;;;;;19.80;9.25;;;18.10;95.00;;;;;;5095755;28;20028;-81
2021/10/19 00:31:59;;;;;;;22.90;9.57;;;18.10;94.70;;;;;;5098233;28;20031;-80
2021/10/19 00:34:25;;;;;;;19.10;9.77;;;18.10;95.20;;;;;;5080805;28;20032;-81
2021/10/19 00:36:51;;;;;;;23.35;10.52;;;18.10;95.30;;;;;;5080470;28;20052;-81
2021/10/19 00:39:16;;;;;;;17.48;8.98;;;18.10;95.40;;;;;;5080336;28;20044;-82
2021/10/19 00:41:43;;;;;;;20.83;9.57;;;18.00;95.10;;;;;;5079037;28;20024;-80
2021/10/19 00:44:09;;;;;;;22.02;10.52;;;18.00;95.10;;;;;;5092791;28;20024;-80
2021/10/19 00:46:34;;;;;;;17.80;9.73;;;18.10;95.30;;;;;;5080404;28;20025;-81
2021/10/19 00:49:00;;;;;;;24.10;11.02;;;18.10;95.60;;;;;;5080291;28;20028;-80
2021/10/19 00:51:27;;;;;;;20.17;10.18;;;18.00;95.80;;;;;;5094694;28;20020;-80
2021/10/19 00:53:53;;;;;;;18.15;9.35;;;18.10;96.10;;;;;;5100400;28;20028;-80
2021/10/19 00:56:18;;;;;;;21.33;10.15;;;18.00;95.90;;;;;;5100234;28;20036;-79
2021/10/19 00:58:45;;;;;;;18.63;9.45;;;18.10;96.00;;;;;;5100405;28;20028;-81
2021/10/19 01:01:11;;;;;;;17.85;9.05;;;18.10;95.90;;;;;;5100394;28;20024;-81
2021/10/19 01:03:37;;;;;;;18.08;9.07;;;18.10;95.90;;;;;;5099312;28;20074;-81
2021/10/19 01:06:05;;;;;;;16.67;9.32;;;18.10;95.80;;;;;;5100254;28;20016;-80
2021/10/19 01:08:31;;;;;;;14.15;8.02;;;18.10;96.00;;;;;;5100310;28;20023;-81
2021/10/19 01:10:58;;;;;;;14.15;7.82;;;18.10;96.00;;;;;;5099886;28;20383;-81
2021/10/19 01:13:24;;;;;;;19.42;7.93;;;18.10;95.60;;;;;;5100116;28;20035;-81
2021/10/19 01:15:50;;;;;;;14.50;8.30;;;18.10;95.30;;;;;;5100056;28;20020;-81
2021/10/19 01:18:17;;;;;;;14.57;7.97;;;18.10;95.50;;;;;;5100107;28;20024;-80
2021/10/19 01:20:44;;;;;;;16.58;9.63;;;18.00;95.60;;;;;;5100000;28;20377;-79
2021/10/19 01:23:10;;;;;;;17.83;9.30;;;18.10;95.70;;;;;;5099898;28;20105;-78
2021/10/19 01:25:37;;;;;;;14.77;8.43;;;18.10;95.70;;;;;;5099388;28;20012;-80
2021/10/19 01:28:09;;;;;;;15.93;9.13;;;18.00;95.70;;;;;;5098921;28;20024;-80
2021/10/19 01:30:43;;;;;;;15.60;8.93;;;18.10;95.80;;;;;;5099680;28;20020;-80
2021/10/19 01:33:10;;;;;;;20.33;10.07;;;18.00;95.60;;;;;;5088749;28;20037;-79
2021/10/19 01:35:41;;;;;;;18.27;10.48;;;18.00;95.60;;;;;;5079136;28;20104;-80
2021/10/19 01:38:10;;;;;;;22.90;12.95;;;18.00;95.70;;;;;;5079631;28;20039;-79
2021/10/19 01:40:36;;;;;;;25.67;11.73;;;18.00;95.80;;;;;;5077483;28;20032;-79
2021/10/19 01:43:07;;;;;;;25.13;11.98;;;18.00;95.80;;;;;;5089496;28;20046;-80
2021/10/19 01:45:33;;;;;;;21.65;12.68;;;18.00;95.90;;;;;;5079175;28;20013;-80
2021/10/19 01:47:59;;;;;;;22.30;12.70;;;18.00;95.60;;;;;;5079257;28;20020;-80
2021/10/19 01:50:24;;;;;;;24.30;14.30;;;17.90;95.50;;;;;;5084836;28;20055;-80
2021/10/19 01:52:51;;;;;;;29.85;14.98;;;18.00;95.60;;;;;;5099442;28;20394;-79
2021/10/19 01:55:17;;;;;;;29.30;16.23;;;17.90;95.70;;;;;;5098814;28;20101;-80
2021/10/19 01:57:43;;;;;;;28.35;15.80;;;18.00;96.00;;;;;;5099418;28;20027;-80
2021/10/19 02:00:11;;;;;;;29.48;16.77;;;18.00;95.80;;;;;;5099180;28;20024;-80
2021/10/19 02:02:39;;;;;;;31.58;17.60;;;17.90;95.70;;;;;;5099213;28;20360;-80
2021/10/19 02:05:07;;;;;;;33.55;17.48;;;17.90;95.90;;;;;;5098940;28;20016;-80
2021/10/19 02:07:32;;;;;;;29.27;16.83;;;17.90;95.80;;;;;;5099041;28;20077;-80
2021/10/19 02:09:59;;;;;;;32.40;16.55;;;18.00;95.70;;;;;;5098838;28;20020;-79
2021/10/19 02:12:25;;;;;;;29.40;17.33;;;17.90;95.60;;;;;;5098627;28;20024;-80
2021/10/19 02:14:51;;;;;;;32.78;18.38;;;18.00;95.70;;;;;;5099085;28;20382;-80
2021/10/19 02:17:17;;;;;;;34.67;17.27;;;18.00;95.80;;;;;;5099256;28;20093;-80
2021/10/19 02:19:42;;;;;;;33.05;16.85;;;18.00;95.80;;;;;;5098945;28;20085;-80
2021/10/19 02:22:09;;;;;;;37.42;18.80;;;18.00;95.60;;;;;;5097366;28;20048;-80
2021/10/19 02:24:35;;;;;;;33.72;18.83;;;17.90;95.40;;;;;;5098769;28;20012;-80
2021/10/19 02:27:01;;;;;;;33.00;18.50;;;18.00;95.50;;;;;;5098482;28;20036;-79
2021/10/19 02:29:26;;;;;;;36.53;18.88;;;18.00;95.70;;;;;;5098773;28;20020;-80
2021/10/19 02:31:52;;;;;;;45.25;18.55;;;18.00;95.60;;;;;;5098639;28;20065;-81
2021/10/19 02:34:18;;;;;;;34.30;18.50;;;18.00;95.60;;;;;;5078344;28;20032;-81
2021/10/19 02:36:44;;;;;;;40.08;20.63;;;18.00;95.40;;;;;;5078140;28;20041;-80
2021/10/19 02:39:11;;;;;;;41.17;20.65;;;18.00;95.40;;;;;;5076711;28;20564;-80
2021/10/19 02:41:37;;;;;;;34.95;20.58;;;18.00;95.60;;;;;;5077896;28;20167;-78
2021/10/19 02:44:04;;;;;;;41.30;19.88;;;18.00;95.70;;;;;;5090411;28;20036;-79
2021/10/19 02:46:33;;;;;;;41.17;20.30;;;18.00;95.60;;;;;;5077988;28;20020;-80
2021/10/19 02:49:00;;;;;;;36.63;19.20;;;18.00;95.40;;;;;;5078212;28;20099;-80
2021/10/19 02:51:27;;;;;;;37.17;20.02;;;18.00;95.40;;;;;;5092436;28;20394;-79
2021/10/19 02:53:56;;;;;;;39.47;18.27;;;18.00;95.30;;;;;;5096102;28;20093;-80
2021/10/19 02:56:23;;;;;;;36.08;19.92;;;18.00;95.40;;;;;;5097758;28;20501;-80
2021/10/19 02:58:49;;;;;;;34.13;19.00;;;18.00;95.50;;;;;;5098333;28;20379;-80
2021/10/19 03:01:15;;;;;;;43.83;19.30;;;18.00;95.30;;;;;;5098011;28;20020;-81
2021/10/19 03:03:41;;;;;;;32.67;18.55;;;18.00;95.20;;;;;;5098070;28;20386;-80
2021/10/19 03:06:07;;;;;;;29.35;17.38;;;18.00;95.10;;;;;;5097851;28;20024;-80
2021/10/19 03:08:33;;;;;;;36.78;19.52;;;18.00;95.00;;;;;;5098267;28;20065;-80
2021/10/19 03:10:59;;;;;;;28.55;17.30;;;18.00;94.90;;;;;;5097509;28;20020;-81
2021/10/19 03:13:28;;;;;;;31.45;17.45;;;17.90;94.60;;;;;;5097976;28;20031;-80
2021/10/19 03:15:56;;;;;;;30.77;18.38;;;17.90;94.60;;;;;;5097726;28;20031;-80
2021/10/19 03:18:22;;;;;;;29.52;17.92;;;17.90;94.60;;;;;;5098054;28;20027;-80
2021/10/19 03:20:48;;;;;;;32.90;18.52;;;17.90;94.50;;;;;;5097600;28;20031;-80
2021/10/19 03:23:14;;;;;;;32.13;18.77;;;17.90;94.40;;;;;;5097980;28;20016;-80
2021/10/19 03:25:40;;;;;;;37.25;18.27;;;18.00;94.50;;;;;;5097192;28;20149;-81
2021/10/19 03:28:06;;;;;;;28.05;18.08;;;18.00;94.60;;;;;;5097841;28;20024;-80
2021/10/19 03:30:32;;;;;;;31.08;17.55;;;18.00;94.50;;;;;;5097807;28;20028;-81
2021/10/19 03:32:58;;;;;;;30.10;16.90;;;17.90;94.00;;;;;;5087573;28;20028;-80
2021/10/19 03:35:24;;;;;;;31.05;18.15;;;17.90;94.20;;;;;;5077171;28;20036;-80
2021/10/19 03:37:50;;;;;;;29.70;17.88;;;17.90;94.20;;;;;;5077461;28;20500;-80
2021/10/19 03:40:15;;;;;;;29.15;17.25;;;17.90;94.30;;;;;;5076678;28;20476;-80
2021/10/19 03:42:41;;;;;;;29.90;15.65;;;17.90;94.30;;;;;;5085165;28;20474;-80
2021/10/19 03:45:11;;;;;;;26.27;15.05;;;17.90;94.20;;;;;;5080849;28;20040;-80
2021/10/19 03:47:36;;;;;;;23.15;14.30;;;18.00;94.10;;;;;;5077584;28;20028;-80
2021/10/19 03:50:03;;;;;;;25.17;14.48;;;17.90;94.00;;;;;;5079775;28;20033;-80
2021/10/19 03:52:29;;;;;;;26.23;15.73;;;17.90;93.90;;;;;;5097620;28;20453;-80
2021/10/19 03:54:55;;;;;;;29.10;16.00;;;17.90;94.10;;;;;;5097179;28;20032;-80
2021/10/19 03:57:21;;;;;;;23.38;15.32;;;17.90;94.20;;;;;;5097171;28;20059;-80
2021/10/19 03:59:47;;;;;;;26.48;14.85;;;17.90;93.90;;;;;;5097197;28;20034;-79
2021/10/19 04:02:13;;;;;;;25.80;14.55;;;17.90;94.10;;;;;;5097354;28;20020;-80
2021/10/19 04:04:39;;;;;;;26.40;15.63;;;17.90;93.80;;;;;;5097468;28;20024;-79
2021/10/19 04:07:05;;;;;;;25.63;14.27;;;17.90;93.50;;;;;;5101399;28;20020;-79
2021/10/19 04:09:31;;;;;;;25.65;14.02;;;17.90;93.60;;;;;;5101218;28;20032;-79
2021/10/19 04:11:57;;;;;;;24.35;13.73;;;17.90;93.50;;;;;;5101048;28;20028;-80
2021/10/19 04:14:22;;;;;;;22.77;13.38;;;17.90;93.50;;;;;;5101202;28;20055;-80
2021/10/19 04:16:48;;;;;;;21.63;12.48;;;17.90;93.70;;;;;;5101234;28;20040;-80
2021/10/19 04:19:14;;;;;;;22.35;14.18;;;17.90;93.70;;;;;;5101067;28;20115;-80
2021/10/19 04:21:45;;;;;;;20.92;12.68;;;17.90;93.70;;;;;;5101301;28;20016;-80
2021/10/19 04:24:11;;;;;;;20.83;11.65;;;17.90;93.70;;;;;;5099753;28;20044;-80
2021/10/19 04:26:37;;;;;;;22.38;12.60;;;17.90;93.60;;;;;;5100967;28;20051;-80
2021/10/19 04:29:04;;;;;;;21.48;12.20;;;17.90;93.70;;;;;;5100931;28;20028;-80
2021/10/19 04:31:31;;;;;;;22.98;12.38;;;17.90;93.70;;;;;;5101045;28;20095;-80
2021/10/19 04:33:59;;;;;;;23.27;12.05;;;17.90;93.80;;;;;;5083290;28;20031;-80
2021/10/19 04:36:27;;;;;;;19.38;11.70;;;17.90;93.70;;;;;;5080519;28;20111;-79
2021/10/19 04:38:53;;;;;;;19.45;12.00;;;17.90;93.60;;;;;;5080167;28;20024;-80
2021/10/19 04:41:19;;;;;;;20.25;10.65;;;17.80;93.30;;;;;;5080463;28;20024;-80
2021/10/19 04:43:45;;;;;;;18.83;11.35;;;17.80;93.20;;;;;;5092639;28;20025;-80
2021/10/19 04:46:12;;;;;;;20.17;10.90;;;17.70;93.20;;;;;;5079368;28;20041;-80
2021/10/19 04:48:38;;;;;;;21.20;11.05;;;17.70;93.50;;;;;;5080233;28;20536;-80
2021/10/19 04:51:04;;;;;;;22.55;12.98;;;17.60;93.10;;;;;;5091594;28;20088;-80
2021/10/19 04:53:31;;;;;;;21.90;12.48;;;17.50;93.00;;;;;;5100450;28;20020;-80
2021/10/19 04:55:58;;;;;;;17.27;11.38;;;17.40;92.90;;;;;;5100725;28;20055;-80
2021/10/19 04:58:24;;;;;;;20.05;11.40;;;17.40;93.00;;;;;;5100321;28;20031;-80
2021/10/19 05:00:50;;;;;;;20.75;11.27;;;17.30;92.80;;;;;;5100338;28;20076;-81
2021/10/19 05:03:17;;;;;;;19.00;11.18;;;17.20;92.70;;;;;;5100233;28;20024;-84
2021/10/19 05:05:45;;;;;;;17.55;10.85;;;17.10;92.70;;;;;;5100649;28;20466;-76
2021/10/19 05:08:10;;;;;;;17.00;10.43;;;17.10;92.60;;;;;;5100158;28;20033;-80
2021/10/19 05:10:36;;;;;;;21.88;11.73;;;17.10;92.50;;;;;;5099946;28;20389;-80
2021/10/19 05:13:02;;;;;;;23.05;13.10;;;17.00;92.40;;;;;;5098668;28;20031;-79
2021/10/19 05:15:28;;;;;;;22.92;12.35;;;16.90;92.60;;;;;;5099151;28;20028;-82
2021/10/19 05:17:54;;;;;;;24.52;12.90;;;16.90;92.90;;;;;;5099160;28;20056;-77
2021/10/19 05:20:20;;;;;;;25.90;12.32;;;16.90;93.40;;;;;;5100016;28;20024;-78
2021/10/19 05:22:46;;;;;;;20.00;11.57;;;16.80;93.30;;;;;;5099870;28;20028;-79
2021/10/19 05:25:12;;;;;;;20.67;12.38;;;16.80;93.40;;;;;;5099629;28;20016;-80
2021/10/19 05:27:41;;;;;;;21.27;11.82;;;16.80;93.30;;;;;;5099828;28;20592;-80
2021/10/19 05:30:08;;;;;;;26.08;12.80;;;16.80;93.10;;;;;;5099864;28;20521;-80
2021/10/19 05:32:34;;;;;;;21.30;11.40;;;16.80;93.30;;;;;;5094108;28;20029;-80
2021/10/19 05:35:00;;;;;;;19.95;11.25;;;16.70;93.40;;;;;;5079691;28;20046;-80
2021/10/19 05:37:26;;;;;;;20.80;11.38;;;16.70;93.50;;;;;;5079227;28;20061;-82
2021/10/19 05:39:52;;;;;;;21.30;11.30;;;16.70;93.50;;;;;;5079245;28;20038;-77
2021/10/19 05:42:18;;;;;;;21.35;11.25;;;16.70;93.70;;;;;;5082166;28;20024;-80
2021/10/19 05:44:44;;;;;;;18.90;10.95;;;16.70;93.80;;;;;;5086807;28;20025;-81
2021/10/19 05:47:10;;;;;;;18.83;10.70;;;16.60;93.90;;;;;;5079095;28;20024;-81
2021/10/19 05:49:36;;;;;;;21.98;11.52;;;16.60;93.70;;;;;;5079244;28;20491;-82
2021/10/19 05:52:02;;;;;;;20.75;11.10;;;16.60;93.70;;;;;;5097997;28;20056;-80
2021/10/19 05:54:28;;;;;;;18.75;10.65;;;16.50;93.60;;;;;;5099407;28;20068;-78
2021/10/19 05:56:54;;;;;;;18.15;11.05;;;16.50;93.70;;;;;;5098848;28;20016;-80
2021/10/19 05:59:21;;;;;;;20.90;10.90;;;16.50;93.60;;;;;;5098351;28;20163;-80
2021/10/19 06:01:47;;;;;;;18.95;11.20;;;16.50;93.80;;;;;;5095942;28;20046;-79
2021/10/19 06:04:13;;;;;;;21.50;10.40;;;16.50;93.90;;;;;;5097567;28;20016;-80
2021/10/19 06:06:39;;;;;;;19.15;10.98;;;16.50;93.70;;;;;;5097882;28;20016;-80
2021/10/19 06:09:06;;;;;;;20.58;10.85;;;16.50;93.70;;;;;;5099177;28;20100;-80
2021/10/19 06:11:32;;;;;;;19.08;11.18;;;16.50;93.80;;;;;;5098797;28;20116;-80
2021/10/19 06:13:57;;;;;;;19.58;10.48;;;16.50;94.10;;;;;;5099029;28;20035;-80
2021/10/19 06:16:23;;;;;;;20.52;11.45;;;16.50;93.90;;;;;;5098981;28;20024;-80
2021/10/19 06:18:49;;;;;;;22.10;10.70;;;16.50;93.80;;;;;;5098847;28;20039;-80
2021/10/19 06:21:16;;;;;;;23.75;11.00;;;16.60;93.80;;;;;;5098849;28;20024;-80
2021/10/19 06:23:42;;;;;;;22.75;11.30;;;16.60;94.00;;;;;;5098633;28;20055;-80
2021/10/19 06:26:07;;;;;;;21.73;11.65;;;16.70;94.40;;;;;;5098518;28;20028;-81
2021/10/19 06:28:33;;;;;;;20.52;11.70;;;16.70;94.80;;;;;;5096647;28;20425;-81
2021/10/19 06:30:59;;;;;;;19.25;11.77;;;16.70;94.70;;;;;;5098319;28;20028;-80
2021/10/19 06:33:25;;;;;;;22.20;12.32;;;16.70;94.90;;;;;;5084329;28;20394;-80
2021/10/19 06:35:51;;;;;;;22.27;11.75;;;16.70;94.30;;;;;;5077878;28;20036;-80
2021/10/19 06:38:17;;;;;;;25.25;12.45;;;16.70;94.20;;;;;;5076961;28;20494;-80
2021/10/19 06:40:42;;;;;;;21.92;12.27;;;16.80;94.20;;;;;;5077578;28;20031;-80
2021/10/19 06:43:09;;;;;;;20.45;11.73;;;16.80;94.20;;;;;;5089676;28;20040;-80
2021/10/19 06:45:35;;;;;;;20.48;11.38;;;16.80;94.30;;;;;;5078909;28;20058;-81
2021/10/19 06:48:01;;;;;;;21.27;11.93;;;16.80;94.50;;;;;;5078168;28;20032;-80
2021/10/19 06:50:27;;;;;;;21.35;11.13;;;16.80;94.60;;;;;;5084471;28;20055;-81
2021/10/19 06:52:53;;;;;;;21.65;11.80;;;16.90;94.60;;;;;;5098411;28;20032;-81
2021/10/19 06:55:22;;;;;;;22.42;11.93;;;16.80;94.60;;;;;;5096665;28;20130;-81
2021/10/19 06:57:48;;;;;;;20.77;10.82;;;16.80;94.70;;;;;;5098213;28;20111;-80
2021/10/19 07:00:16;;;;;;;23.83;12.82;;;16.90;94.70;;;;;;5097956;28;20027;-80
2021/10/19 07:02:42;;;;;;;22.48;12.40;;;16.90;94.60;;;;;;5098185;28;20021;-81
2021/10/19 07:05:08;;;;;;;19.63;11.65;;;16.90;94.40;;;;;;5097892;28;20482;-80
2021/10/19 07:07:34;;;;;;;18.83;12.43;;;16.90;94.50;;;;;;5096766;28;20028;-80
2021/10/19 07:10:00;;;;;;;21.88;13.15;;;16.90;94.50;;;;;;5097771;28;20024;-80
2021/10/19 07:12:28;;;;;;;20.92;11.82;;;16.90;94.50;;;;;;5097934;28;20024;-80
2021/10/19 07:14:54;;;;;;;26.45;14.73;;;16.90;94.30;;;;;;5098033;28;20398;-80
2021/10/19 07:17:20;;;;;;;25.17;13.65;;;16.90;94.30;;;;;;5097846;28;20082;-80
2021/10/19 07:19:47;;;;;;;24.88;13.82;;;17.00;94.40;;;;;;5098102;28;20024;-81
2021/10/19 07:22:13;;;;;;;24.10;14.27;;;17.00;94.30;;;;;;5097722;28;20433;-80
2021/10/19 07:24:39;;;;;;;22.60;13.27;;;17.00;94.10;;;;;;5098016;28;20031;-80
2021/10/19 07:27:05;;;;;;;25.17;13.32;;;17.00;94.10;;;;;;5097446;28;20394;-80
2021/10/19 07:29:31;;;;;;;24.83;13.38;;;17.00;94.00;;;;;;5097928;28;20089;-80
2021/10/19 07:31:57;;;;;;;23.55;13.57;;;17.00;94.10;;;;;;5097438;28;20055;-80
2021/10/19 07:34:23;;;;;;;17.95;11.68;;;17.00;94.20;;;;;;5077799;28;20039;-81
2021/10/19 07:36:50;;;;;;;20.35;12.55;;;17.00;94.20;;;;;;5077466;28;20091;-80
2021/10/19 07:39:16;;;;;;;22.55;12.02;;;17.00;94.00;;;;;;5077277;28;20025;-80
2021/10/19 07:41:42;;;;;;;22.20;12.13;;;17.10;94.00;;;;;;5076760;28;20050;-80
2021/10/19 07:44:08;;;;;;;19.23;11.48;;;17.10;94.00;;;;;;5089903;28;20025;-80
2021/10/19 07:46:34;;;;;;;21.50;13.43;;;17.10;93.80;;;;;;5077170;28;20031;-80
2021/10/19 07:49:00;;;;;;;18.42;12.13;;;17.10;93.80;;;;;;5077279;28;20021;-81
2021/10/19 07:51:25;;;;;;;19.95;13.27;;;17.20;93.70;;;;;;5091680;28;20020;-80
2021/10/19 07:53:51;;;;;;;20.67;12.75;;;17.20;93.70;;;;;;5097507;28;20446;-80
2021/10/19 07:56:20;;;;;;;26.15;13.27;;;17.30;93.70;;;;;;5097132;28;20027;-80
2021/10/19 07:58:49;;;;;;;24.00;13.20;;;17.30;93.60;;;;;;5097400;28;20020;-80
2021/10/19 08:01:15;;;;;;;24.13;13.52;;;17.30;93.60;;;;;;5097197;28;20070;-80
2021/10/19 08:03:41;;;;;;;22.33;12.73;;;17.30;93.40;;;;;;5097301;28;20020;-80
2021/10/19 08:06:07;;;;;;;22.67;13.93;;;17.30;93.50;;;;;;5096071;28;20386;-80
2021/10/19 08:08:35;;;;;;;22.15;13.35;;;17.40;93.50;;;;;;5096372;28;20024;-80
2021/10/19 08:11:01;;;;;;;22.23;13.38;;;17.40;93.40;;;;;;5097005;28;20028;-81
2021/10/19 08:13:27;;;;;;;22.23;13.77;;;17.50;93.40;;;;;;5097193;28;20383;-80
2021/10/19 08:15:53;;;;;;;24.17;13.77;;;17.50;93.30;;;;;;5097257;28;20194;-80
2021/10/19 08:18:19;;;;;;;23.23;13.68;;;17.50;93.20;;;;;;5097236;28;20095;-80
2021/10/19 08:20:45;;;;;;;20.27;13.60;;;17.60;93.20;;;;;;5097047;28;20028;-81
2021/10/19 08:23:11;;;;;;;21.95;13.48;;;17.70;93.10;;;;;;5097196;28;20020;-80
2021/10/19 08:25:38;;;;;;;21.02;13.55;;;17.70;93.00;;;;;;5096714;28;20020;-81
2021/10/19 08:28:04;;;;;;;20.55;13.00;;;17.70;92.90;;;;;;5097388;28;20049;-80
2021/10/19 08:30:30;;;;;;;21.88;13.07;;;17.70;92.80;;;;;;5097001;28;20476;-80
2021/10/19 08:32:56;;;;;;;24.23;13.65;;;17.80;92.70;;;;;;5088710;28;20043;-80
2021/10/19 08:35:22;;;;;;;23.67;14.75;;;17.80;92.60;;;;;;5076634;28;20020;-81
2021/10/19 08:37:49;;;;;;;23.95;15.07;;;17.80;92.50;;;;;;5076820;28;20048;-80
2021/10/19 08:40:16;;;;;;;27.35;16.40;;;17.90;92.50;;;;;;5076233;28;20019;-81
2021/10/19 08:42:47;;;;;;;27.13;16.40;;;17.90;92.40;;;;;;5083010;28;20074;-81
2021/10/19 08:45:16;;;;;;;27.73;16.27;;;17.90;92.20;;;;;;5080546;28;20017;-81
2021/10/19 08:47:44;;;;;;;29.98;17.75;;;18.00;92.20;;;;;;5076909;28;20024;-80
2021/10/19 08:50:12;;;;;;;29.17;17.92;;;18.10;92.40;;;;;;5080242;28;20103;-82
2021/10/19 08:52:38;;;;;;;31.10;19.65;;;18.20;92.60;;;;;;5098315;28;20027;-81
2021/10/19 08:55:04;;;;;;;25.38;18.10;;;18.30;92.10;;;;;;5100050;28;20832;-81
2021/10/19 08:57:30;;;;;;;27.52;16.98;;;18.40;91.80;;;;;;5099548;28;20036;-80
2021/10/19 08:59:56;;;;;;;23.27;15.45;;;18.50;91.60;;;;;;5100246;28;20045;-79
2021/10/19 09:02:44;;;;;;;18.52;12.45;;;18.60;91.40;;;;;;5099024;28;20077;-81
2021/10/19 09:05:17;;;;;;;21.42;13.02;;;18.60;91.00;;;;;;5100736;28;20427;-80
2021/10/19 09:08:01;;;;;;;21.38;14.02;;;18.60;90.70;;;;;;5100885;28;20019;-81
2021/10/19 09:10:31;;;;;;;17.15;11.70;;;18.80;91.00;;;;;;5100051;28;20024;-80
2021/10/19 09:12:58;;;;;;;16.00;11.23;;;19.00;91.00;;;;;;5100002;28;20049;-80
2021/10/19 09:15:29;;;;;;;18.45;11.95;;;19.30;90.60;;;;;;5100116;28;20047;-80
2021/10/19 09:18:00;;;;;;;15.35;10.85;;;19.60;89.80;;;;;;5100193;28;20028;-81
2021/10/19 09:20:26;;;;;;;12.85;10.02;;;19.80;89.10;;;;;;5100134;28;20085;-80
2021/10/19 09:22:57;;;;;;;17.20;10.20;;;20.00;89.20;;;;;;5099895;28;20028;-81
2021/10/19 09:25:24;;;;;;;12.10;8.43;;;20.20;89.30;;;;;;5099677;28;20465;-80
2021/10/19 09:27:52;;;;;;;12.90;8.63;;;20.50;88.40;;;;;;5100225;28;20020;-82
2021/10/19 09:30:22;;;;;;;13.55;7.95;;;20.60;87.50;;;;;;5100144;28;20366;-81
2021/10/19 09:32:52;;;;;;;14.05;8.57;;;20.70;84.10;;;;;;5092372;28;20437;-82
2021/10/19 09:35:21;;;;;;;12.27;8.63;;;20.80;84.90;;;;;;5079555;28;20017;-81
2021/10/19 09:38:04;;;;;;;12.30;8.60;;;21.10;82.70;;;;;;5079301;28;20571;-80
2021/10/19 09:40:39;;;;;;;12.10;7.95;;;21.30;80.80;;;;;;5078885;28;20024;-80
2021/10/19 09:43:11;;;;;;;11.95;8.13;;;21.40;80.40;;;;;;5090420;28;20024;-81
2021/10/19 09:45:39;;;;;;;13.10;8.13;;;21.50;80.40;;;;;;5080148;28;20033;-81
2021/10/19 09:48:18;;;;;;;11.52;7.95;;;21.70;80.30;;;;;;5077838;28;20048;-81
2021/10/19 09:50:45;;;;;;;11.85;7.88;;;21.90;80.10;;;;;;5087843;28;20024;-81
2021/10/19 09:53:13;;;;;;;20.38;8.88;;;22.30;78.40;;;;;;5097912;28;20119;-81
2021/10/19 09:55:40;;;;;;;13.10;8.52;;;22.60;77.00;;;;;;5099009;28;20047;-80
2021/10/19 09:58:06;;;;;;;12.77;7.90;;;22.80;76.70;;;;;;5099298;28;20024;-81
2021/10/19 10:00:37;;;;;;;12.27;8.77;;;23.20;76.00;;;;;;5099275;28;20038;-81
2021/10/19 10:03:06;;;;;;;11.52;8.00;;;23.60;76.00;;;;;;5098942;28;20027;-82
2021/10/19 10:05:33;;;;;;;16.30;8.10;;;24.00;74.00;;;;;;5099178;28;20019;-81
2021/10/19 10:08:00;;;;;;;11.77;8.07;;;24.30;72.60;;;;;;5099212;28;20530;-82
2021/10/19 10:10:27;;;;;;;13.82;8.50;;;24.60;74.10;;;;;;5097886;28;20122;-82
2021/10/19 10:13:03;;;;;;;11.75;8.18;;;25.00;71.90;;;;;;5098987;28;20028;-81
2021/10/19 10:15:33;;;;;;;11.82;8.50;;;25.30;73.10;;;;;;5099315;28;20021;-82
2021/10/19 10:18:02;;;;;;;12.90;8.18;;;25.70;70.70;;;;;;5098853;28;20133;-82
2021/10/19 10:20:43;;;;;;;13.05;8.45;;;26.00;67.80;;;;;;5098832;28;20056;-83
2021/10/19 10:23:26;;;;;;;15.50;8.82;;;26.10;65.00;;;;;;5099000;28;20020;-82
2021/10/19 10:25:54;;;;;;;14.93;9.77;;;26.30;66.90;;;;;;5098315;28;20081;-81
2021/10/19 10:28:30;;;;;;;16.50;9.88;;;26.40;66.40;;;;;;5098842;28;20056;-82
2021/10/19 10:31:02;;;;;;;14.80;9.60;;;26.60;65.30;;;;;;5097199;28;20024;-82
2021/10/19 10:33:36;;;;;;;14.63;9.23;;;26.80;63.40;;;;;;5085719;28;20033;-82
2021/10/19 10:36:05;;;;;;;14.13;9.77;;;26.80;62.60;;;;;;5083966;28;20055;-82
2021/10/19 10:38:31;;;;;;;15.20;10.65;;;26.80;62.70;;;;;;5098523;28;20846;-81
2021/10/19 10:41:12;;;;;;;14.25;10.15;;;26.90;62.90;;;;;;5098401;28;20031;-81
2021/10/19 10:43:38;;;;;;;15.32;10.57;;;27.00;63.20;;;;;;5095750;28;20544;-81
2021/10/19 10:46:08;;;;;;;16.63;11.82;;;27.10;62.80;;;;;;5078416;28;20059;-81
2021/10/19 10:48:35;;;;;;;16.77;10.90;;;27.30;62.10;;;;;;5077942;28;20039;-81
2021/10/19 10:51:03;;;;;;;16.20;11.05;;;27.40;61.90;;;;;;5090195;28;20024;-82
2021/10/19 10:53:38;;;;;;;18.60;10.98;;;27.50;63.00;;;;;;5098184;28;20016;-82
2021/10/19 10:56:06;;;;;;;21.17;11.07;;;27.60;63.50;;;;;;5098171;28;20089;-82
2021/10/19 10:58:37;;;;;;;17.95;10.65;;;27.70;61.20;;;;;;5098064;28;20022;-82
2021/10/19 11:01:23;;;;;;;19.07;11.37;;;27.80;61.10;;;;;;5098121;28;20023;-82
2021/10/19 11:04:02;;;;;;;15.60;10.70;;;27.90;61.80;;;;;;5098326;28;20255;-82
2021/10/19 11:06:28;;;;;;;13.75;10.52;;;28.10;61.90;;;;;;5098174;28;20495;-83
2021/10/19 11:09:00;;;;;;;15.38;11.07;;;28.20;60.70;;;;;;5098202;28;20402;-82
2021/10/19 11:11:30;;;;;;;16.50;10.75;;;28.30;60.60;;;;;;5097635;28;20051;-82
2021/10/19 11:14:09;;;;;;;18.17;11.98;;;28.30;61.10;;;;;;5098015;28;20465;-82
2021/10/19 11:16:42;;;;;;;20.02;11.38;;;28.40;60.10;;;;;;5097708;28;20027;-83
2021/10/19 11:19:22;;;;;;;16.52;10.38;;;28.40;59.70;;;;;;5097822;28;20020;-82
2021/10/19 11:21:52;;;;;;;14.50;10.32;;;28.40;59.20;;;;;;5098040;28;20059;-82
2021/10/19 11:24:20;;;;;;;17.45;11.27;;;28.40;60.20;;;;;;5097550;28;20576;-83
2021/10/19 11:26:46;;;;;;;21.48;10.77;;;28.40;61.60;;;;;;5097687;28;20020;-82
2021/10/19 11:29:13;;;;;;;17.42;11.15;;;28.50;61.20;;;;;;5097767;28;20032;-82
2021/10/19 11:31:39;;;;;;;15.75;11.32;;;28.60;61.80;;;;;;5097741;28;20027;-82
2021/10/19 11:34:07;;;;;;;17.38;11.50;;;28.60;60.00;;;;;;5077350;28;20021;-83
2021/10/19 11:36:34;;;;;;;21.55;11.40;;;28.50;58.40;;;;;;5076054;28;20406;-83
2021/10/19 11:39:05;;;;;;;18.70;11.52;;;28.40;59.50;;;;;;5077086;28;20479;-82
2021/10/19 11:41:31;;;;;;;17.50;11.65;;;28.20;58.30;;;;;;5077342;28;20633;-82
2021/10/19 11:44:02;;;;;;;19.00;12.30;;;28.00;59.70;;;;;;5089264;28;20025;-82
2021/10/19 11:46:31;;;;;;;19.55;12.57;;;27.80;60.00;;;;;;5077432;28;20490;-82
2021/10/19 11:49:02;;;;;;;19.33;12.48;;;27.70;59.70;;;;;;5077375;28;20383;-82
2021/10/19 11:51:29;;;;;;;21.35;13.05;;;27.60;60.90;;;;;;5092140;28;20146;-82
2021/10/19 11:53:57;;;;;;;20.27;12.40;;;27.50;60.40;;;;;;5097345;28;20490;-83
2021/10/19 11:56:24;;;;;;;16.50;12.57;;;27.40;60.90;;;;;;5095820;28;20087;-82
2021/10/19 11:58:56;;;;;;;25.15;13.75;;;27.40;61.20;;;;;;5097526;28;20012;-82
2021/10/19 12:01:23;;;;;;;19.48;12.30;;;27.30;61.40;;;;;;5097401;28;20032;-80
2021/10/19 12:04:00;;;;;;;20.25;13.18;;;27.30;60.20;;;;;;5097331;28;20099;-82
2021/10/19 12:06:28;;;;;;;22.35;13.02;;;27.20;60.90;;;;;;5097218;28;20020;-81
2021/10/19 12:08:56;;;;;;;20.42;12.48;;;27.20;61.30;;;;;;5097498;28;20012;-80
2021/10/19 12:11:24;;;;;;;23.88;13.07;;;27.10;61.90;;;;;;5096847;28;20043;-80
2021/10/19 12:13:54;;;;;;;28.30;13.15;;;27.10;61.80;;;;;;5097355;28;20434;-79
2021/10/19 12:16:27;;;;;;;19.85;12.52;;;27.00;61.70;;;;;;5097034;28;20339;-80
2021/10/19 12:18:55;;;;;;;20.08;12.77;;;27.10;62.60;;;;;;5097542;28;20016;-80
2021/10/19 12:21:22;;;;;;;19.15;12.45;;;27.00;61.80;;;;;;5097165;28;20045;-79
2021/10/19 12:23:56;;;;;;;21.98;13.07;;;27.00;62.10;;;;;;5096987;28;20021;-81
2021/10/19 12:26:24;;;;;;;22.05;14.35;;;27.00;63.40;;;;;;5097962;28;20020;-80
2021/10/19 12:28:53;;;;;;;19.08;12.73;;;27.00;62.70;;;;;;5100992;28;20008;-80